createdAt,value
2023-03-21T00:02:01.317Z,34.03
2023-03-21T00:06:01.230Z,33.98
2023-03-21T00:10:12.365Z,34.01
2023-03-21T00:14:02.161Z,33.93
2023-03-21T00:18:01.099Z,33.89
2023-03-21T00:22:07.545Z,33.71
2023-03-21T00:26:02.053Z,33.79
2023-03-21T00:30:00.988Z,33.72
2023-03-21T00:34:00.978Z,33.85
2023-03-21T00:38:00.916Z,33.80
2023-03-21T00:42:00.879Z,33.72
2023-03-21T00:46:00.835Z,33.66
2023-03-21T00:50:00.829Z,33.76
2023-03-21T00:54:00.798Z,33.62
2023-03-21T00:58:02.341Z,33.62
2023-03-21T01:02:00.813Z,33.49
2023-03-21T01:06:00.761Z,33.54
2023-03-21T01:10:00.814Z,33.53
2023-03-21T01:14:18.738Z,33.49
2023-03-21T01:18:01.812Z,33.49
2023-03-21T01:22:00.776Z,33.44
2023-03-21T01:26:00.747Z,33.45
2023-03-21T01:30:00.683Z,33.40
2023-03-21T01:34:00.670Z,33.32
2023-03-21T01:38:00.647Z,33.27
2023-03-21T01:42:00.603Z,33.26
2023-03-21T01:46:00.600Z,33.29
2023-03-21T01:50:00.627Z,33.29
2023-03-21T01:54:00.670Z,33.29
2023-03-21T01:58:07.734Z,33.27
2023-03-21T02:02:01.680Z,33.34
2023-03-21T02:06:00.688Z,33.24
2023-03-21T02:10:00.613Z,33.24
2023-03-21T02:14:06.631Z,33.17
2023-03-21T02:18:01.570Z,33.08
2023-03-21T02:22:00.522Z,33.21
2023-03-21T02:26:00.459Z,33.11
2023-03-21T02:30:00.456Z,33.05
2023-03-21T02:34:02.209Z,33.17
2023-03-21T02:38:01.076Z,33.11
2023-03-21T02:42:00.446Z,33.08
2023-03-21T02:46:00.622Z,33.02
2023-03-21T02:50:00.602Z,33.05
2023-03-21T02:54:24.924Z,32.97
2023-03-21T02:58:12.311Z,33.09
2023-03-21T03:02:01.696Z,33.04
2023-03-21T03:06:00.590Z,32.95
2023-03-21T03:10:00.540Z,33.01
2023-03-21T03:14:02.115Z,32.91
2023-03-21T03:18:01.463Z,32.87
2023-03-21T03:22:00.440Z,32.79
2023-03-21T03:26:00.354Z,32.95
2023-03-21T03:30:00.355Z,32.95
2023-03-21T03:34:00.336Z,32.84
2023-03-21T03:38:00.336Z,32.75
2023-03-21T03:42:27.625Z,32.77
2023-03-21T03:46:01.406Z,32.79
2023-03-21T03:50:00.347Z,32.84
2023-03-21T03:54:00.309Z,32.76
2023-03-21T03:58:00.342Z,32.68
2023-03-21T04:02:00.357Z,32.73
2023-03-21T04:06:00.284Z,32.70
2023-03-21T04:10:00.371Z,32.64
2023-03-21T04:14:00.423Z,32.66
2023-03-21T04:18:00.539Z,32.76
2023-03-21T04:22:00.653Z,32.62
2023-03-21T04:26:00.728Z,32.58
2023-03-21T04:30:00.851Z,32.54
2023-03-21T04:34:00.924Z,32.69
2023-03-21T04:38:01.023Z,32.56
2023-03-21T04:42:01.150Z,32.47
2023-03-21T04:46:01.262Z,32.50
2023-03-21T04:50:01.353Z,32.54
2023-03-21T04:54:01.422Z,32.41
2023-03-21T04:58:01.522Z,32.47
2023-03-21T05:02:01.606Z,32.53
2023-03-21T05:06:01.664Z,32.43
2023-03-21T05:10:02.660Z,32.44
2023-03-21T05:14:01.854Z,32.41
2023-03-21T05:18:01.929Z,32.43
2023-03-21T05:22:01.977Z,32.43
2023-03-21T05:26:02.116Z,32.39
2023-03-21T05:30:02.243Z,32.31
2023-03-21T05:34:02.347Z,32.36
2023-03-21T05:38:02.384Z,32.32
2023-03-21T05:42:02.549Z,32.26
2023-03-21T05:46:02.638Z,32.23
2023-03-21T05:50:02.709Z,32.17
2023-03-21T05:54:02.809Z,32.39
2023-03-21T05:58:02.889Z,32.35
2023-03-21T06:02:02.977Z,32.31
2023-03-21T06:06:03.110Z,32.31
2023-03-21T06:10:03.215Z,32.41
2023-03-21T06:14:03.355Z,32.35
2023-03-21T06:18:03.445Z,32.43
2023-03-21T06:22:03.580Z,32.45
2023-03-21T06:26:03.688Z,32.52
2023-03-21T06:30:03.838Z,32.50
2023-03-21T06:34:03.923Z,32.47
2023-03-21T06:38:04.390Z,32.95
2023-03-21T06:42:04.161Z,33.12
2023-03-21T06:46:04.318Z,33.01
2023-03-21T06:50:04.306Z,33.52
2023-03-21T06:54:04.317Z,34.14
2023-03-21T06:58:04.325Z,34.84
2023-03-21T07:02:04.852Z,35.46
2023-03-21T07:06:04.420Z,35.98
2023-03-21T07:10:04.842Z,36.19
2023-03-21T07:14:04.343Z,36.49
2023-03-21T07:18:04.295Z,36.94
2023-03-21T07:22:04.261Z,37.23
2023-03-21T07:26:04.263Z,37.44
2023-03-21T07:30:04.228Z,37.69
2023-03-21T07:34:04.128Z,37.90
2023-03-21T07:38:04.103Z,38.08
2023-03-21T07:42:04.064Z,38.29
2023-03-21T07:46:04.066Z,38.53
2023-03-21T07:50:03.969Z,37.36
2023-03-21T07:54:04.330Z,37.74
2023-03-21T07:58:03.930Z,38.25
2023-03-21T08:02:03.923Z,38.57
2023-03-21T08:06:03.887Z,38.95
2023-03-21T08:10:03.797Z,39.13
2023-03-21T08:14:03.789Z,39.36
2023-03-21T08:18:03.736Z,39.70
2023-03-21T08:22:03.698Z,39.94
2023-03-21T08:26:03.909Z,40.11
2023-03-21T08:30:03.851Z,40.27
2023-03-21T08:34:03.836Z,40.53
2023-03-21T08:38:03.766Z,40.80
2023-03-21T08:42:03.891Z,40.90
2023-03-21T08:46:03.742Z,40.92
2023-03-21T08:50:03.861Z,40.43
2023-03-21T08:54:03.889Z,40.00
2023-03-21T08:58:03.912Z,39.60
2023-03-21T09:02:03.608Z,39.62
2023-03-21T09:06:03.530Z,39.70
2023-03-21T09:10:19.717Z,39.69
2023-03-21T09:14:04.591Z,39.60
2023-03-21T09:18:03.666Z,39.54
2023-03-21T09:22:03.686Z,39.49
2023-03-21T09:26:03.611Z,39.45
2023-03-21T09:30:03.583Z,39.36
2023-03-21T09:34:03.623Z,39.29
2023-03-21T09:38:03.595Z,36.63
2023-03-21T09:42:03.915Z,35.19
2023-03-21T09:46:03.893Z,33.61
2023-03-21T09:50:14.038Z,31.21
2023-03-21T09:54:04.843Z,30.53
2023-03-21T09:58:03.908Z,30.27
2023-03-21T10:02:03.766Z,29.52
2023-03-21T10:06:03.782Z,29.24
2023-03-21T10:10:03.752Z,28.58
2023-03-21T10:14:03.886Z,28.22
2023-03-21T10:18:04.060Z,28.02
2023-03-21T10:22:04.530Z,27.78
2023-03-21T10:26:04.366Z,27.78
2023-03-21T10:30:04.909Z,27.41
2023-03-21T10:34:04.920Z,27.44
2023-03-21T10:38:04.915Z,27.33
2023-03-21T10:42:05.105Z,27.39
2023-03-21T10:46:05.543Z,27.54
2023-03-21T10:50:07.822Z,27.92
2023-03-21T10:54:04.978Z,28.76
2023-03-21T10:58:04.976Z,29.45
2023-03-21T11:02:04.957Z,30.11
2023-03-21T11:06:04.847Z,30.72
2023-03-21T11:10:04.962Z,31.11
2023-03-21T11:14:04.793Z,31.51
2023-03-21T11:18:04.726Z,31.83
2023-03-21T11:22:04.734Z,32.15
2023-03-21T11:26:04.701Z,32.40
2023-03-21T11:30:04.656Z,32.66
2023-03-21T11:34:04.591Z,32.91
2023-03-21T11:38:04.580Z,33.05
2023-03-21T11:42:04.955Z,33.51
2023-03-21T11:46:04.593Z,33.83
2023-03-21T11:50:05.576Z,34.33
2023-03-21T11:54:04.446Z,34.75
2023-03-21T11:58:13.909Z,34.87
2023-03-21T12:02:05.644Z,35.40
2023-03-21T12:06:04.625Z,35.38
2023-03-21T12:10:05.004Z,35.69
2023-03-21T12:14:04.933Z,35.63
2023-03-21T12:18:05.280Z,35.83
2023-03-21T12:22:05.343Z,35.72
2023-03-21T12:26:05.448Z,35.74
2023-03-21T12:30:05.552Z,36.42
2023-03-21T12:34:06.101Z,35.61
2023-03-21T12:38:05.999Z,35.55
2023-03-21T12:42:06.473Z,35.10
2023-03-21T12:46:06.016Z,35.01
2023-03-21T12:50:06.070Z,34.87
2023-03-21T12:54:05.937Z,34.72
2023-03-21T12:58:05.884Z,34.23
2023-03-21T13:02:05.895Z,33.85
2023-03-21T13:06:05.907Z,33.52
2023-03-21T13:10:05.843Z,33.36
2023-03-21T13:14:05.745Z,32.95
2023-03-21T13:18:05.706Z,32.63
2023-03-21T13:22:05.755Z,32.93
2023-03-21T13:26:06.013Z,35.78
2023-03-21T13:30:05.632Z,36.84
2023-03-21T13:34:05.563Z,35.52
2023-03-21T13:38:05.620Z,35.65
2023-03-21T13:42:05.464Z,35.35
2023-03-21T13:46:05.564Z,34.60
2023-03-21T13:50:05.434Z,34.16
2023-03-21T13:54:05.569Z,33.84
2023-03-21T13:58:05.407Z,33.44
2023-03-21T14:02:05.550Z,33.09
2023-03-21T14:06:05.816Z,32.79
2023-03-21T14:10:06.373Z,32.49
2023-03-21T14:14:05.893Z,32.19
2023-03-21T14:18:16.160Z,32.08
2023-03-21T14:22:07.038Z,32.01
2023-03-21T14:26:06.141Z,31.82
2023-03-21T14:30:05.878Z,31.77
2023-03-21T14:34:06.004Z,31.63
2023-03-21T14:38:06.160Z,31.59
2023-03-21T14:42:06.426Z,31.34
2023-03-21T14:46:06.474Z,31.20
2023-03-21T14:50:06.666Z,31.06
2023-03-21T14:54:06.724Z,30.93
2023-03-21T14:58:07.018Z,30.79
2023-03-21T15:02:07.102Z,30.61
2023-03-21T15:06:07.282Z,30.54
2023-03-21T15:10:07.646Z,30.42
2023-03-21T15:14:08.142Z,30.34
2023-03-21T15:18:08.003Z,30.29
2023-03-21T15:22:08.113Z,30.20
2023-03-21T15:26:08.349Z,30.02
2023-03-21T15:30:08.662Z,29.98
2023-03-21T15:34:08.508Z,29.93
2023-03-21T15:38:08.457Z,29.84
2023-03-21T15:42:08.464Z,29.75
2023-03-21T15:46:08.476Z,29.68
2023-03-21T15:50:08.413Z,29.60
2023-03-21T15:54:08.837Z,29.49
2023-03-21T15:58:08.305Z,29.40
2023-03-21T16:02:08.415Z,29.25
2023-03-21T16:06:10.766Z,29.09
2023-03-21T16:10:08.182Z,29.05
2023-03-21T16:14:08.196Z,29.01
2023-03-21T16:18:10.859Z,28.87
2023-03-21T16:22:08.065Z,28.92
2023-03-21T16:26:08.025Z,28.87
2023-03-21T16:30:09.387Z,28.80
2023-03-21T16:34:07.970Z,28.80
2023-03-21T16:38:08.144Z,28.84
2023-03-21T16:42:08.299Z,28.90
2023-03-21T16:46:08.501Z,28.93
2023-03-21T16:50:08.573Z,28.98
2023-03-21T16:54:08.583Z,29.06
2023-03-21T16:58:08.621Z,29.12
2023-03-21T17:02:08.654Z,29.29
2023-03-21T17:06:08.609Z,29.21
2023-03-21T17:10:08.589Z,29.32
2023-03-21T17:14:08.531Z,29.27
2023-03-21T17:18:08.574Z,29.37
2023-03-21T17:22:08.545Z,29.34
2023-03-21T17:26:08.566Z,29.34
2023-03-21T17:30:08.578Z,29.29
2023-03-21T17:34:08.596Z,29.22
2023-03-21T17:38:08.608Z,29.15
2023-03-21T17:42:08.628Z,29.11
2023-03-21T17:46:08.660Z,29.01
2023-03-21T17:50:08.726Z,28.94
2023-03-21T17:54:08.753Z,29.00
2023-03-21T17:58:09.300Z,29.04
2023-03-21T18:02:08.954Z,29.11
2023-03-21T18:06:08.887Z,29.17
2023-03-21T18:10:09.027Z,29.18
2023-03-21T18:14:16.349Z,29.21
2023-03-21T18:18:10.038Z,29.32
2023-03-21T18:22:09.082Z,29.30
2023-03-21T18:26:09.320Z,29.40
2023-03-21T18:30:46.928Z,29.46
2023-03-21T18:34:09.894Z,29.49
2023-03-21T18:38:08.833Z,29.50
2023-03-21T18:42:16.788Z,29.47
2023-03-21T18:46:09.777Z,29.46
2023-03-21T18:50:16.253Z,29.44
2023-03-21T18:54:09.684Z,29.40
2023-03-21T18:58:08.687Z,29.33
2023-03-21T19:02:08.700Z,29.28
2023-03-21T19:06:08.743Z,29.23
2023-03-21T19:10:18.686Z,29.18
2023-03-21T19:14:09.896Z,29.14
2023-03-21T19:18:37.693Z,29.10
2023-03-21T19:22:09.809Z,29.10
2023-03-21T19:26:08.772Z,29.10
2023-03-21T19:30:14.924Z,29.11
2023-03-21T19:34:09.803Z,29.08
2023-03-21T19:38:08.791Z,29.08
2023-03-21T19:42:16.979Z,29.06
2023-03-21T19:46:09.927Z,28.98
2023-03-21T19:50:47.358Z,28.98
2023-03-21T19:54:09.797Z,28.94
2023-03-21T19:58:08.792Z,28.98
2023-03-21T20:02:33.650Z,28.99
2023-03-21T20:06:09.922Z,28.99
2023-03-21T20:10:08.874Z,29.04
2023-03-21T20:14:09.085Z,29.04
2023-03-21T20:18:09.037Z,29.11
2023-03-21T20:22:20.154Z,29.09
2023-03-21T20:26:09.931Z,29.11
2023-03-21T20:30:10.240Z,29.12
2023-03-21T20:34:09.357Z,29.12
2023-03-21T20:38:09.134Z,29.16
2023-03-21T20:42:09.343Z,29.14
2023-03-21T20:46:09.376Z,29.13
2023-03-21T20:50:10.177Z,29.11
2023-03-21T20:54:09.414Z,29.11
2023-03-21T20:58:30.029Z,29.06
2023-03-21T21:02:10.327Z,29.10
2023-03-21T21:06:09.307Z,29.07
2023-03-21T21:10:09.267Z,29.02
2023-03-21T21:14:09.217Z,29.02
2023-03-21T21:18:09.172Z,29.01
2023-03-21T21:22:09.150Z,29.01
2023-03-21T21:26:09.097Z,29.00
2023-03-21T21:30:09.085Z,29.05
2023-03-21T21:34:09.085Z,29.06
2023-03-21T21:38:09.209Z,29.00
2023-03-21T21:42:09.099Z,29.04
2023-03-21T21:46:09.117Z,28.99
2023-03-21T21:50:09.140Z,28.94
2023-03-21T21:54:09.151Z,29.04
2023-03-21T21:58:09.165Z,28.95
2023-03-21T22:02:09.208Z,29.02
2023-03-21T22:06:09.291Z,29.02
2023-03-21T22:10:09.332Z,29.03
2023-03-21T22:14:09.436Z,29.07
2023-03-21T22:18:09.499Z,29.10
2023-03-21T22:22:09.511Z,29.16
2023-03-21T22:26:09.625Z,29.16
2023-03-21T22:30:09.634Z,29.24
2023-03-21T22:34:09.733Z,29.28
2023-03-21T22:38:09.844Z,29.31
2023-03-21T22:42:09.969Z,29.37
2023-03-21T22:46:10.154Z,29.38
2023-03-21T22:50:10.162Z,29.39
2023-03-21T22:54:10.253Z,29.37
2023-03-21T22:58:10.414Z,29.35
2023-03-21T23:02:10.515Z,29.31
2023-03-21T23:06:10.718Z,29.37
2023-03-21T23:10:10.786Z,29.34
2023-03-21T23:14:10.939Z,29.31
2023-03-21T23:18:11.059Z,29.24
2023-03-21T23:22:11.173Z,29.23
2023-03-21T23:26:11.321Z,29.21
2023-03-21T23:30:11.498Z,29.28
2023-03-21T23:34:11.635Z,29.28
2023-03-21T23:38:11.795Z,29.28
2023-03-21T23:42:12.016Z,29.24
2023-03-21T23:46:12.104Z,29.33
2023-03-21T23:50:12.885Z,29.34
2023-03-21T23:54:12.363Z,29.32
2023-03-21T23:58:12.446Z,29.30
